Latest Weather Observations for Toowoomba

IDQ60801

Issued at 1:35 pm EST Friday 19 September 2014 (issued every 30 minutes, with the page automatically refreshed every 10 minutes)

About weather observations | Map of weather stations | Latest weather observations for QLD | Other Formats
Station Details ID: 041529 Name: TOOWOOMBA AIRPORT Lat: -27.54 Lon: 151.91 Height: 640.9 m
Data from the previous 72 hours. | See also: Recent months at Toowoomba
Date/Time
EST
Temp
°C
App
Temp
°C
Dew
Point
Rel
Hum
%
Delta-T
°C
Wind Press
QNH
hPa
Press
MSL
hPa
Rain
since 9 am
mm
Dir
 
Spd
km/h
Gust
km/h
Spd
kts
Gust
kts
19/01:30pm 21.1 14.4 -4.1 18 10.7 W 22 32 12 17 1019.8 - 0.0
19/01:00pm 20.1 13.9 -4.9 18 10.4 NW 19 26 10 14 1020.1 - 0.0
19/12:30pm 19.9 13.5 -6.6 16 10.6 NW 19 24 10 13 1020.8 - 0.0
19/12:00pm 19.9 14.4 -5.1 18 10.3 NW 15 20 8 11 1021.3 1019.6 0.0
19/11:30am 19.4 13.7 -7.0 16 10.4 NW 15 22 8 12 1021.7 - 0.0
19/11:00am 18.7 13.3 -4.7 20 9.6 NW 15 22 8 12 1022.3 - 0.0
19/10:30am 18.5 13.2 -3.6 22 9.3 NW 15 20 8 11 1022.6 - 0.0
19/10:00am 18.0 13.5 -3.4 23 9.0 WNW 11 17 6 9 1023.0 - 0.0
19/09:30am 17.9 13.9 -1.9 26 8.6 WNW 9 19 5 10 1023.1 - 0.0
19/09:00am 17.3 15.1 3.2 39 6.7 ESE 4 9 2 5 1023.3 1021.7 0.0
19/08:30am 15.7 12.3 1.8 39 6.4 E 9 11 5 6 1023.3 - 0.0
19/08:00am 14.8 10.6 1.7 41 5.9 ENE 13 15 7 8 1023.0 - 0.0
19/07:30am 13.9 8.9 -0.9 36 6.3 E 15 17 8 9 1022.7 - 0.0
19/07:00am 12.2 8.0 -1.0 40 5.5 ESE 11 11 6 6 1022.3 - 0.0
19/06:30am 9.3 4.7 -0.8 49 4.1 E 13 17 7 9 1022.0 - 0.0
19/06:00am 6.7 1.9 -2.4 52 3.5 E 13 15 7 8 1021.5 1019.8 0.0
19/05:30am 8.1 4.0 -2.8 46 4.2 E 9 9 5 5 1021.4 - 0.0
19/05:00am 6.8 4.1 -2.4 52 3.5 E 2 6 1 3 1021.4 - 0.0
19/04:30am 7.8 4.1 -3.1 46 4.1 E 7 7 4 4 1021.0 - 0.0
19/04:00am 8.2 4.6 -2.4 47 4.1 SE 7 9 4 5 1020.8 - 0.0
19/03:30am 10.2 7.9 -2.4 41 5.0 CALM 0 2 0 1 1020.6 - 0.0
19/03:00am 9.5 6.0 -3.1 41 4.9 S 6 11 3 6 1020.7 1019.0 0.0
19/02:30am 10.9 6.7 -3.6 36 5.6 SW 9 11 5 6 1021.0 - 0.0
19/02:00am 10.8 6.3 -3.3 37 5.5 SSW 11 15 6 8 1021.2 - 0.0
19/01:30am 11.5 6.6 -3.4 35 5.9 SSW 13 17 7 9 1021.4 - 0.0
19/01:00am 11.5 7.0 -3.4 35 5.9 SSW 11 13 6 7 1021.5 - 0.0
19/12:30am 11.4 7.2 -3.5 35 5.8 SW 9 13 5 7 1022.0 - 0.0
19/12:00am 11.4 6.8 -3.9 34 5.9 SSW 11 15 6 8 1022.3 1020.6 0.0
 
Date/Time
EST
Temp
°C
App
Temp
°C
Dew
Point
Rel
Hum
%
Delta-T
°C
Wind Press
QNH
hPa
Press
MSL
hPa
Rain
since 9 am
mm
Dir
 
Spd
km/h
Gust
km/h
Spd
kts
Gust
kts
18/11:30pm 12.2 7.2 -4.0 32 6.3 SSW 13 17 7 9 1022.5 - 0.0
18/11:00pm 11.7 6.7 -4.4 32 6.2 SSW 13 15 7 8 1022.4 - 0.0
18/10:30pm 12.5 8.2 -5.0 29 6.7 SSW 9 11 5 6 1022.4 - 0.0
18/10:00pm 12.6 7.9 -4.9 29 6.7 SW 11 13 6 7 1022.4 - 0.0
18/09:30pm 13.2 8.8 -5.4 27 7.1 SW 9 11 5 6 1022.3 - 0.0
18/09:00pm 13.3 8.9 -5.8 26 7.2 SW 9 11 5 6 1022.2 1020.5 0.0
18/08:30pm 13.8 9.5 -5.3 26 7.4 SW 9 13 5 7 1021.8 - 0.0
18/08:00pm 13.7 9.8 -4.9 27 7.2 SW 7 9 4 5 1021.4 - 0.0
18/07:30pm 14.2 9.6 -4.5 27 7.4 SW 11 17 6 9 1020.9 - 0.0
18/07:00pm 14.7 10.0 -4.6 26 7.6 WSW 11 15 6 8 1020.6 - 0.0
18/06:30pm 15.4 10.8 -4.5 25 8.0 SW 11 15 6 8 1020.4 - 0.0
18/06:00pm 16.7 11.7 -3.9 24 8.4 WSW 13 17 7 9 1019.9 1018.2 0.0
18/05:30pm 18.5 12.7 -4.2 21 9.4 WSW 17 22 9 12 1019.6 - 0.0
18/05:00pm 19.4 13.2 -4.8 19 10.0 SW 19 26 10 14 1019.4 - 0.0
18/04:30pm 19.9 13.0 -5.8 17 10.5 WSW 22 30 12 16 1019.1 - 0.0
18/04:00pm 20.5 13.8 -4.6 18 10.5 WSW 22 32 12 17 1018.8 - 0.0
18/03:30pm 20.6 14.4 -3.1 20 10.2 WSW 20 28 11 15 1018.5 - 0.0
18/03:00pm 20.4 14.2 -3.3 20 10.2 SW 20 32 11 17 1018.7 1016.9 0.0
18/02:30pm 20.7 14.9 -1.8 22 10.0 SW 19 24 10 13 1018.8 - 0.0
18/02:00pm 19.4 12.8 -3.5 21 9.7 WSW 22 28 12 15 1019.2 - 0.0
18/01:30pm 20.2 14.3 -1.0 24 9.5 SSW 20 30 11 16 1019.4 - 0.0
18/01:00pm 19.4 13.1 -1.1 25 9.1 WSW 22 30 12 16 1019.8 - 0.0
18/12:30pm 18.9 11.2 -2.7 23 9.3 WSW 28 39 15 21 1020.2 - 0.0
18/12:00pm 18.9 11.2 0.0 28 8.5 WSW 30 43 16 23 1020.6 1018.9 0.0
18/11:30am 18.4 10.9 -1.4 26 8.7 WSW 28 39 15 21 1021.0 - 0.0
18/11:00am 17.3 9.8 -1.4 28 8.1 W 28 33 15 18 1021.4 - 0.0
18/10:34am 17.5 10.2 -0.2 30 7.9 SW 28 50 15 27 1021.8 - 0.0
18/10:30am 17.6 11.2 1.2 33 7.5 SW 24 35 13 19 1021.8 - 0.0
18/10:03am 17.0 9.3 0.2 32 7.5 WSW 30 48 16 26 1022.3 - 0.0
18/10:00am 16.5 8.3 -0.7 31 7.5 SW 32 48 17 26 1022.2 - 0.0
18/09:39am 16.1 8.3 -1.0 31 7.4 SW 30 48 16 26 1022.2 - 0.0
18/09:30am 16.4 9.1 0.1 33 7.2 SW 28 43 15 23 1022.4 - 0.0
18/09:00am 15.8 8.9 0.0 34 6.9 SW 26 37 14 20 1022.4 1020.7 0.0
18/08:30am 15.4 9.3 0.4 36 6.7 SW 22 32 12 17 1022.2 - 0.0
18/08:00am 14.1 8.8 -0.4 37 6.3 SW 17 24 9 13 1022.1 - 0.0
18/07:30am 13.3 9.4 1.0 43 5.4 SW 11 13 6 7 1021.8 - 0.0
18/07:00am 11.9 8.0 1.3 48 4.6 SW 11 15 6 8 1021.4 - 0.0
18/06:30am 9.8 6.7 1.5 56 3.6 WSW 7 9 4 5 1021.1 - 0.0
18/06:00am 8.7 5.4 0.4 56 3.4 SW 7 11 4 6 1020.8 1019.1 0.0
18/05:30am 9.0 5.4 0.5 55 3.6 WSW 9 11 5 6 1020.5 - 0.0
18/05:00am 9.3 6.1 0.5 54 3.7 WSW 7 9 4 5 1020.1 - 0.0
18/04:30am 9.4 5.8 0.6 54 3.7 SW 9 11 5 6 1019.7 - 0.0
18/04:00am 10.0 6.8 0.6 52 4.0 SW 7 9 4 5 1019.6 - 0.0
18/03:30am 10.3 7.3 0.6 51 4.1 SW 6 9 3 5 1019.4 - 0.0
18/03:00am 10.4 6.5 1.0 52 4.0 SW 11 15 6 8 1019.2 1017.5 0.0
18/02:30am 11.1 6.8 1.1 50 4.3 SW 13 17 7 9 1019.2 - 0.0
18/02:00am 10.4 6.9 1.0 52 4.0 WSW 9 13 5 7 1019.2 - 0.0
18/01:30am 11.2 7.6 0.9 49 4.4 WSW 9 13 5 7 1019.2 - 0.0
18/01:00am 11.7 8.5 0.8 47 4.7 SW 7 9 4 5 1019.2 - 0.0
18/12:30am 11.8 8.2 0.6 46 4.8 SW 9 15 5 8 1019.1 - 0.0
18/12:00am 12.5 8.6 0.9 45 5.1 SSW 11 15 6 8 1018.9 1017.1 0.0
 
Date/Time
EST
Temp
°C
App
Temp
°C
Dew
Point
Rel
Hum
%
Delta-T
°C
Wind Press
QNH
hPa
Press
MSL
hPa
Rain
since 9 am
mm
Dir
 
Spd
km/h
Gust
km/h
Spd
kts
Gust
kts
17/11:30pm 13.3 9.0 1.0 43 5.4 SSW 13 17 7 9 1018.5 - 0.0
17/11:00pm 13.8 10.3 1.1 42 5.6 SSW 9 15 5 8 1018.3 - 0.0
17/10:30pm 13.9 8.8 0.9 41 5.8 SSW 17 22 9 12 1018.3 - 0.0
17/10:00pm 14.5 9.5 1.1 40 6.0 SSW 17 24 9 13 1018.2 - 0.0
17/09:30pm 14.1 9.4 1.1 41 5.8 SW 15 19 8 10 1018.2 - 0.0
17/09:00pm 15.3 10.3 1.1 38 6.4 SW 17 22 9 12 1018.1 1016.4 0.0
17/08:30pm 15.0 9.9 0.8 38 6.3 SW 17 20 9 11 1017.9 - 0.0
17/08:00pm 15.7 10.6 0.7 36 6.7 SW 17 20 9 11 1017.7 - 0.0
17/07:30pm 15.7 10.7 1.1 37 6.6 SW 17 19 9 10 1017.4 - 0.0
17/07:00pm 16.5 11.8 1.0 35 7.0 SW 15 19 8 10 1017.1 - 0.0
17/06:30pm 17.2 11.3 -0.5 30 7.8 SW 20 24 11 13 1016.6 - 0.0
17/06:00pm 18.8 12.0 -1.6 25 8.9 W 24 32 13 17 1016.2 1014.4 0.0
17/05:30pm 19.5 13.0 -2.2 23 9.5 W 22 32 12 17 1015.9 - 0.0
17/05:00pm 20.5 12.9 -1.9 22 9.9 WSW 28 37 15 20 1015.6 - 0.0
17/04:30pm 21.3 12.9 -2.5 20 10.5 WSW 32 39 17 21 1015.2 - 0.0
17/04:00pm 22.0 14.8 -2.0 20 10.7 W 26 37 14 20 1014.9 - 0.0
17/03:30pm 22.3 14.8 -1.7 20 10.8 W 28 37 15 20 1014.7 - 0.0
17/03:00pm 22.3 14.6 -0.4 22 10.5 WNW 30 41 16 22 1014.8 1013.0 0.0
17/02:30pm 22.8 15.6 0.6 23 10.5 W 28 41 15 22 1014.9 - 0.0
17/02:00pm 22.6 15.3 -0.2 22 10.6 WNW 28 43 15 23 1015.1 - 0.0
17/01:30pm 22.9 16.3 1.8 25 10.2 WNW 26 35 14 19 1015.5 - 0.0
17/01:09pm 22.0 15.0 2.2 27 9.6 W 28 46 15 25 1015.8 - 0.0
17/01:06pm 21.9 14.3 0.4 24 10.1 W 30 46 16 25 1015.7 - 0.0
17/01:00pm 21.8 15.8 0.9 25 9.9 NW 22 28 12 15 1015.9 - 0.0
17/12:30pm 21.8 16.2 1.5 26 9.7 WNW 20 35 11 19 1016.2 - 0.0
17/12:00pm 21.1 15.6 1.9 28 9.2 WNW 20 28 11 15 1016.6 1014.9 0.0
17/11:30am 20.8 14.7 2.6 30 8.8 W 24 35 13 19 1017.3 - 0.0
17/11:00am 20.1 13.3 1.0 28 8.9 WNW 26 37 14 20 1017.8 - 0.0
17/10:30am 19.4 11.5 0.9 29 8.6 W 32 44 17 24 1018.2 - 0.0
17/10:28am 19.3 12.1 0.8 29 8.5 WSW 28 44 15 24 1018.2 - 0.0
17/10:00am 19.1 14.3 4.8 39 7.1 WNW 19 24 10 13 1018.7 - 0.0
17/09:30am 18.4 13.4 3.5 37 7.2 W 19 24 10 13 1018.9 - 0.0
17/09:00am 17.6 13.5 4.5 42 6.4 WNW 15 19 8 10 1019.0 1017.2 0.8
17/08:30am 16.3 12.3 3.0 41 6.3 W 13 19 7 10 1018.7 - 0.8
17/08:00am 15.7 11.6 2.2 40 6.2 WNW 13 19 7 10 1018.4 - 0.8
17/07:30am 15.0 10.9 2.2 42 5.9 WNW 13 15 7 8 1018.1 - 0.8
17/07:00am 13.4 10.0 2.0 46 5.1 NW 9 13 5 7 1017.7 - 0.8
17/06:30am 11.9 8.5 1.8 50 4.5 NNW 9 13 5 7 1017.3 - 0.8
17/06:00am 11.5 7.6 1.2 49 4.5 NW 11 13 6 7 1017.2 1015.4 0.8
17/05:30am 11.9 8.4 1.3 48 4.6 NW 9 11 5 6 1016.7 - 0.8
17/05:00am 11.8 8.3 1.2 48 4.6 NW 9 11 5 6 1016.5 - 0.8
17/04:30am 12.1 8.6 1.4 48 4.7 WNW 9 11 5 6 1016.3 - 0.8
17/04:00am 12.2 8.7 1.5 48 4.7 NW 9 11 5 6 1016.1 - 0.8
17/03:30am 12.2 8.8 2.1 50 4.5 NW 9 11 5 6 1016.1 - 0.8
17/03:00am 13.2 9.3 1.2 44 5.3 WNW 11 13 6 7 1015.9 1014.1 0.8
17/02:30am 13.5 9.7 1.5 44 5.4 NW 11 13 6 7 1015.7 - 0.8
17/02:00am 13.4 9.5 1.4 44 5.3 WNW 11 13 6 7 1016.0 - 0.8
17/01:30am 13.8 10.3 1.5 43 5.5 WNW 9 11 5 6 1016.2 - 0.8
17/01:00am 14.1 10.7 1.7 43 5.6 W 9 9 5 5 1016.3 - 0.8
17/12:30am 14.1 10.4 2.4 45 5.4 W 11 17 6 9 1016.4 - 0.8
17/12:00am 14.8 10.8 3.0 45 5.5 W 13 17 7 9 1016.6 1014.9 0.8
 
Date/Time
EST
Temp
°C
App
Temp
°C
Dew
Point
Rel
Hum
%
Delta-T
°C
Wind Press
QNH
hPa
Press
MSL
hPa
Rain
since 9 am
mm
Dir
 
Spd
km/h
Gust
km/h
Spd
kts
Gust
kts
16/11:30pm 15.3 11.8 3.5 45 5.6 W 11 15 6 8 1016.5 - 0.8
16/11:00pm 16.2 12.3 3.6 43 6.0 W 13 15 7 8 1016.4 - 0.8
16/10:30pm 16.2 12.9 4.3 45 5.8 WSW 11 15 6 8 1016.4 - 0.8
16/10:00pm 16.7 13.5 5.0 46 5.8 WSW 11 15 6 8 1016.3 - 0.8
16/09:30pm 17.5 13.9 4.8 43 6.3 WSW 13 17 7 9 1016.3 - 0.8
16/09:00pm 17.7 14.7 5.9 46 6.0 W 11 20 6 11 1016.2 1014.4 0.8
16/08:30pm 17.6 14.6 5.9 46 5.9 WNW 11 13 6 7 1016.0 - 0.8
16/08:00pm 17.9 14.9 6.1 46 6.0 WNW 11 13 6 7 1015.7 - 0.8
16/07:30pm 18.3 15.0 6.2 45 6.2 NW 13 19 7 10 1015.6 - 0.8
16/07:00pm 18.5 15.6 6.7 46 6.1 WNW 11 13 6 7 1015.4 - 0.8
16/06:30pm 19.2 16.0 6.7 44 6.5 NNW 13 17 7 9 1014.9 - 0.8
16/06:00pm 20.0 16.2 7.4 44 6.6 NNW 17 22 9 12 1014.6 1012.8 0.8
16/05:30pm 19.9 16.8 7.3 44 6.6 NW 13 17 7 9 1014.3 - 0.8
16/05:00pm 20.1 15.3 7.5 44 6.7 NW 22 35 12 19 1014.7 - 0.8
16/04:30pm 22.0 18.4 6.7 37 8.1 W 15 22 8 12 1014.1 - 0.6
16/04:00pm 19.7 14.0 8.4 48 6.1 SSW 28 41 15 22 1013.7 - 0.6
16/03:30pm 23.7 19.4 5.1 30 9.6 WSW 17 20 9 11 1013.7 - 0.0
16/03:03pm 23.8 16.9 2.6 25 10.5 WNW 28 50 15 27 1014.0 - 0.0
16/03:00pm 23.9 18.2 4.8 29 9.8 WNW 24 35 13 19 1014.0 1012.2 0.0
16/02:30pm 24.4 17.8 4.2 27 10.3 W 28 37 15 20 1014.0 - 0.0
16/02:00pm 25.0 19.4 5.2 28 10.3 NW 24 35 13 19 1014.4 - 0.0

Other Formats:

Comma delimited format used in spreadsheet applications
http://www.bom.gov.au/fwo/IDQ60801/IDQ60801.95551.axf

JavaScript Object Notation format (JSON) in row-major order
http://www.bom.gov.au/fwo/IDQ60801/IDQ60801.95551.json